Time;durP1;ratioP1;P1;durP2;ratioP2;P2;SDS_P1;SDS_P2;PMS_P1;PMS_P2;Temp;Humidity;BMP_temperature;BMP_pressure;BME280_temperature;BME280_humidity;BME280_pressure;Samples;Min_cycle;Max_cycle;Signal;HPM_P1;HPM_P2
2023/06/23 00:00:43;;;;;;;8.38;7.10;;;19.40;99.90;;;;;;5050093;28;20204;-71
2023/06/23 00:03:09;;;;;;;8.82;7.93;;;19.30;99.90;;;;;;5046982;28;20211;-70
2023/06/23 00:05:35;;;;;;;8.82;7.85;;;19.30;99.90;;;;;;5051772;28;20196;-70
2023/06/23 00:08:01;;;;;;;9.60;7.68;;;19.20;99.90;;;;;;5051909;28;20265;-71
2023/06/23 00:10:27;;;;;;;8.45;7.30;;;19.20;99.90;;;;;;5051210;28;20244;-71
2023/06/23 00:12:52;;;;;;;8.73;7.68;;;19.30;99.90;;;;;;5023407;28;20206;-72
2023/06/23 00:15:18;;;;;;;10.38;8.70;;;19.00;99.90;;;;;;5049278;28;20237;-70
2023/06/23 00:17:45;;;;;;;9.05;8.15;;;19.00;99.90;;;;;;5050363;28;20178;-71
2023/06/23 00:20:14;;;;;;;11.45;8.80;;;19.00;99.90;;;;;;5032866;28;20190;-71
2023/06/23 00:22:40;;;;;;;8.35;7.45;;;19.10;99.90;;;;;;5045922;28;20286;-71
2023/06/23 00:25:10;;;;;;;8.45;7.38;;;19.10;99.90;;;;;;5045239;28;20215;-70
2023/06/23 00:27:41;;;;;;;8.10;6.97;;;19.30;99.90;;;;;;5053430;28;20214;-70
2023/06/23 00:30:08;;;;;;;8.80;7.53;;;19.10;99.90;;;;;;5049571;28;20615;-71
2023/06/23 00:32:34;;;;;;;9.05;6.72;;;19.10;99.90;;;;;;5051468;28;20242;-70
2023/06/23 00:34:59;;;;;;;9.30;8.05;;;19.00;99.90;;;;;;5047400;28;20172;-72
2023/06/23 00:37:26;;;;;;;9.13;7.78;;;19.10;99.90;;;;;;5048182;28;20223;-71
2023/06/23 00:39:51;;;;;;;9.23;6.90;;;19.20;99.90;;;;;;5050825;28;20837;-70
2023/06/23 00:42:17;;;;;;;9.18;7.22;;;19.20;99.90;;;;;;5052595;28;20301;-70
2023/06/23 00:44:43;;;;;;;11.10;7.53;;;19.30;99.90;;;;;;5049218;28;20232;-71
2023/06/23 00:47:09;;;;;;;7.68;6.90;;;19.30;99.90;;;;;;5053956;28;20187;-71
2023/06/23 00:49:35;;;;;;;8.13;7.32;;;19.10;99.90;;;;;;5049484;28;20556;-71
2023/06/23 00:52:07;;;;;;;9.68;7.78;;;19.30;99.90;;;;;;5031278;28;20595;-71
2023/06/23 00:54:35;;;;;;;9.10;7.65;;;19.50;99.90;;;;;;5032181;28;20207;-71
2023/06/23 00:57:04;;;;;;;9.27;7.63;;;19.60;99.90;;;;;;5049684;28;20600;-73
2023/06/23 00:59:30;;;;;;;9.68;7.97;;;19.80;99.90;;;;;;5049961;28;20204;-71
2023/06/23 01:01:59;;;;;;;9.35;7.13;;;19.80;99.90;;;;;;5031395;28;20279;-71
2023/06/23 01:04:29;;;;;;;11.63;7.30;;;19.90;99.90;;;;;;5052929;28;20207;-71
2023/06/23 01:07:01;;;;;;;10.77;7.80;;;19.80;99.90;;;;;;5050721;28;20795;-69
2023/06/23 01:09:40;;;;;;;10.15;7.85;;;19.50;99.90;;;;;;5053074;28;20218;-71
2023/06/23 01:12:12;;;;;;;11.80;8.32;;;19.30;99.90;;;;;;5053045;28;20258;-72
2023/06/23 01:14:49;;;;;;;10.18;8.45;;;19.20;99.90;;;;;;5055993;28;20580;-73
2023/06/23 01:17:23;;;;;;;10.45;8.25;;;19.00;99.90;;;;;;5051333;28;20672;-72
2023/06/23 01:20:17;;;;;;;10.18;8.30;;;19.00;99.90;;;;;;5052531;28;20211;-72
2023/06/23 01:23:06;;;;;;;9.23;7.75;;;19.00;99.90;;;;;;5034754;28;20199;-71
2023/06/23 01:25:37;;;;;;;8.95;7.85;;;19.10;99.90;;;;;;5054243;28;20200;-71
2023/06/23 01:28:18;;;;;;;9.15;8.25;;;19.00;99.90;;;;;;5053899;28;20203;-72
2023/06/23 01:30:47;;;;;;;11.35;8.20;;;19.00;99.90;;;;;;5053688;28;20668;-71
2023/06/23 01:33:27;;;;;;;9.93;8.93;;;18.90;99.90;;;;;;5051798;28;20211;-72
2023/06/23 01:36:14;;;;;;;11.15;8.30;;;18.90;99.90;;;;;;5049472;28;20286;-73
2023/06/23 01:38:46;;;;;;;9.27;8.35;;;18.90;99.90;;;;;;5034264;28;20254;-72
2023/06/23 01:41:18;;;;;;;11.75;8.40;;;18.90;99.90;;;;;;5060550;28;20163;-72
2023/06/23 01:43:48;;;;;;;9.43;8.48;;;18.90;99.90;;;;;;5051654;28;20357;-71
2023/06/23 01:46:25;;;;;;;10.13;8.10;;;18.90;99.90;;;;;;5048542;28;20211;-72
2023/06/23 01:48:56;;;;;;;8.88;7.97;;;19.00;99.90;;;;;;5052066;28;20207;-73
2023/06/23 01:51:24;;;;;;;8.65;7.50;;;19.00;99.90;;;;;;5033920;28;20211;-72
2023/06/23 01:53:51;;;;;;;8.90;7.65;;;18.90;99.90;;;;;;5052960;28;20176;-72
2023/06/23 01:56:18;;;;;;;10.32;8.32;;;18.90;99.90;;;;;;5054747;28;20214;-72
2023/06/23 01:58:45;;;;;;;9.10;7.82;;;19.00;99.90;;;;;;5052013;28;20208;-71
2023/06/23 02:01:12;;;;;;;11.15;7.70;;;19.00;99.90;;;;;;5053743;28;20230;-72
2023/06/23 02:03:39;;;;;;;9.15;7.43;;;19.00;99.90;;;;;;5051449;28;20269;-72
2023/06/23 02:06:07;;;;;;;8.05;7.25;;;19.00;99.90;;;;;;5033446;28;20215;-72
2023/06/23 02:08:34;;;;;;;11.07;7.78;;;19.00;99.90;;;;;;5052797;28;20180;-72
2023/06/23 02:11:01;;;;;;;7.72;6.93;;;19.10;99.90;;;;;;5053686;28;20168;-71
2023/06/23 02:13:28;;;;;;;9.05;7.78;;;19.10;99.90;;;;;;5052027;28;20716;-72
2023/06/23 02:15:55;;;;;;;7.43;6.45;;;19.00;99.90;;;;;;5034584;28;20227;-71
2023/06/23 02:18:21;;;;;;;9.05;7.82;;;19.00;99.90;;;;;;5053745;28;20199;-71
2023/06/23 02:20:48;;;;;;;9.63;7.35;;;19.10;99.90;;;;;;5055550;28;20178;-72
2023/06/23 02:23:14;;;;;;;7.85;7.05;;;19.20;99.90;;;;;;5040842;28;20240;-72
2023/06/23 02:25:41;;;;;;;9.80;7.03;;;19.20;99.90;;;;;;5058015;28;20207;-72
2023/06/23 02:28:10;;;;;;;8.00;7.20;;;19.30;99.90;;;;;;5055434;28;20233;-72
2023/06/23 02:30:38;;;;;;;8.85;6.97;;;19.30;99.90;;;;;;5051115;28;20424;-72
2023/06/23 02:33:03;;;;;;;7.22;6.43;;;19.30;99.90;;;;;;5035332;28;20207;-70
2023/06/23 02:35:29;;;;;;;8.80;6.75;;;19.20;99.90;;;;;;5051433;28;20674;-71
2023/06/23 02:37:59;;;;;;;10.27;7.13;;;19.10;99.90;;;;;;5033279;28;20199;-71
2023/06/23 02:40:27;;;;;;;9.00;7.07;;;19.00;99.90;;;;;;5049830;28;20204;-71
2023/06/23 02:43:10;;;;;;;7.75;6.95;;;19.00;99.90;;;;;;5052452;28;20203;-70
2023/06/23 02:45:39;;;;;;;8.57;7.45;;;19.00;99.90;;;;;;5050819;28;20231;-71
2023/06/23 02:48:13;;;;;;;10.32;7.10;;;19.10;99.90;;;;;;5052744;28;20208;-72
2023/06/23 02:50:39;;;;;;;8.05;7.18;;;19.00;99.90;;;;;;5041211;28;20176;-71
2023/06/23 02:53:09;;;;;;;10.38;6.90;;;18.80;99.90;;;;;;5047661;28;20627;-71
2023/06/23 02:55:44;;;;;;;9.07;7.80;;;18.70;99.90;;;;;;5049793;28;20215;-70
2023/06/23 02:58:14;;;;;;;8.38;7.38;;;18.80;99.90;;;;;;5050917;28;20195;-72
2023/06/23 03:00:40;;;;;;;10.60;7.18;;;18.80;99.90;;;;;;5050452;28;20282;-69
2023/06/23 03:03:12;;;;;;;7.80;6.90;;;18.60;99.90;;;;;;5050014;28;20716;-70
2023/06/23 03:05:38;;;;;;;9.85;6.90;;;18.50;99.90;;;;;;5050233;28;20202;-69
2023/06/23 03:08:05;;;;;;;8.95;7.40;;;18.50;99.90;;;;;;5032854;28;20262;-72
2023/06/23 03:10:32;;;;;;;7.70;6.90;;;18.50;99.90;;;;;;5050653;28;20577;-72
2023/06/23 03:13:00;;;;;;;7.65;6.60;;;18.50;99.90;;;;;;5050196;28;20754;-72
2023/06/23 03:15:27;;;;;;;8.45;7.07;;;18.50;99.90;;;;;;5050312;28;20619;-72
2023/06/23 03:17:58;;;;;;;8.75;7.40;;;18.60;99.90;;;;;;5050326;28;20203;-72
2023/06/23 03:20:35;;;;;;;9.75;7.63;;;18.50;99.90;;;;;;5050888;28;20191;-73
2023/06/23 03:23:05;;;;;;;11.18;7.90;;;18.50;99.90;;;;;;5048258;28;20204;-73
2023/06/23 03:25:31;;;;;;;9.85;6.97;;;18.60;99.90;;;;;;5032192;28;20229;-72
2023/06/23 03:28:01;;;;;;;9.27;7.32;;;18.50;99.90;;;;;;5050006;28;20207;-70
2023/06/23 03:30:36;;;;;;;9.88;7.70;;;18.60;99.90;;;;;;5050044;28;20286;-70
2023/06/23 03:33:08;;;;;;;9.23;7.63;;;18.60;99.90;;;;;;5048537;28;20209;-70
2023/06/23 03:35:41;;;;;;;8.75;7.53;;;18.60;99.90;;;;;;5032113;28;20646;-70
2023/06/23 03:38:09;;;;;;;9.00;6.95;;;18.70;99.90;;;;;;5032629;28;20190;-70
2023/06/23 03:40:42;;;;;;;8.75;7.30;;;18.70;99.90;;;;;;5050264;28;20553;-72
2023/06/23 03:43:15;;;;;;;9.00;7.90;;;18.70;99.90;;;;;;5049426;28;20696;-71
2023/06/23 03:45:44;;;;;;;9.93;7.03;;;18.80;99.90;;;;;;5049991;28;20250;-71
2023/06/23 03:48:12;;;;;;;9.30;7.65;;;18.80;99.90;;;;;;5049567;28;20429;-70
2023/06/23 03:50:40;;;;;;;8.30;7.50;;;18.70;99.90;;;;;;5045832;28;20594;-70
2023/06/23 03:53:08;;;;;;;8.77;6.90;;;18.80;99.90;;;;;;5048256;28;20535;-71
2023/06/23 03:55:36;;;;;;;8.60;7.50;;;18.90;99.90;;;;;;5049567;28;20199;-70
2023/06/23 03:58:06;;;;;;;9.48;8.32;;;18.90;99.90;;;;;;5049538;28;20705;-70
2023/06/23 04:00:34;;;;;;;9.82;7.78;;;19.00;99.90;;;;;;5050006;28;20277;-70
2023/06/23 04:03:04;;;;;;;13.40;8.30;;;19.20;99.90;;;;;;5046738;28;20195;-69
2023/06/23 04:05:30;;;;;;;8.73;7.43;;;19.30;99.90;;;;;;5050068;28;20278;-70
2023/06/23 04:08:00;;;;;;;9.50;7.55;;;19.30;99.90;;;;;;5028708;28;20570;-69
2023/06/23 04:10:27;;;;;;;8.48;7.28;;;19.40;99.90;;;;;;5049858;28;20254;-71
2023/06/23 04:12:54;;;;;;;12.20;7.95;;;19.40;99.90;;;;;;5046216;28;20195;-69
2023/06/23 04:15:24;;;;;;;10.50;9.02;;;19.40;99.90;;;;;;5049755;28;20629;-71
2023/06/23 04:17:53;;;;;;;9.02;8.13;;;19.40;99.90;;;;;;5049712;28;20163;-70
2023/06/23 04:20:20;;;;;;;10.32;8.27;;;19.40;99.90;;;;;;5048830;28;20174;-71
2023/06/23 04:22:47;;;;;;;10.27;9.20;;;19.40;99.90;;;;;;5044912;28;20208;-71
2023/06/23 04:25:13;;;;;;;12.52;9.60;;;19.40;99.90;;;;;;5030558;28;20234;-70
2023/06/23 04:27:42;;;;;;;11.85;9.43;;;19.40;99.90;;;;;;5031598;28;20226;-70
2023/06/23 04:30:09;;;;;;;15.63;10.73;;;19.40;99.90;;;;;;5049357;28;20306;-71
2023/06/23 04:32:37;;;;;;;14.52;9.23;;;19.40;99.90;;;;;;5049399;28;20683;-70
2023/06/23 04:35:04;;;;;;;11.35;9.10;;;19.40;99.90;;;;;;5049749;28;20171;-70
2023/06/23 04:37:46;;;;;;;11.95;9.80;;;19.40;99.90;;;;;;5049901;28;20258;-70
2023/06/23 04:40:35;;;;;;;11.07;9.10;;;19.40;99.90;;;;;;5049555;28;20227;-71
2023/06/23 04:43:12;;;;;;;11.35;9.88;;;19.50;99.90;;;;;;5049445;28;20562;-71
2023/06/23 04:45:47;;;;;;;11.10;8.82;;;19.50;99.90;;;;;;5035279;28;20210;-70
2023/06/23 04:48:16;;;;;;;10.30;8.63;;;19.50;99.90;;;;;;5052852;28;20743;-71
2023/06/23 04:50:44;;;;;;;10.73;8.55;;;19.40;99.90;;;;;;5053228;28;20172;-71
2023/06/23 04:53:18;;;;;;;10.43;8.23;;;19.40;99.90;;;;;;5052999;28;20271;-71
2023/06/23 04:55:48;;;;;;;10.68;8.93;;;19.40;99.90;;;;;;5051938;28;20290;-71
2023/06/23 04:58:17;;;;;;;9.80;8.73;;;19.40;99.90;;;;;;5052801;28;20229;-71
2023/06/23 05:00:44;;;;;;;14.18;8.80;;;19.30;99.90;;;;;;5034005;28;20616;-71
2023/06/23 05:03:11;;;;;;;10.88;8.70;;;19.30;99.90;;;;;;5052943;28;20255;-71
2023/06/23 05:05:38;;;;;;;10.48;9.38;;;19.20;99.90;;;;;;5052871;28;20171;-71
2023/06/23 05:08:05;;;;;;;10.95;9.10;;;19.20;99.90;;;;;;5053258;28;20187;-72
2023/06/23 05:10:31;;;;;;;10.82;8.73;;;19.10;99.90;;;;;;5047954;28;20203;-72
2023/06/23 05:13:00;;;;;;;10.77;9.35;;;19.10;99.90;;;;;;5052217;28;20195;-71
2023/06/23 05:15:27;;;;;;;11.73;9.65;;;19.10;99.90;;;;;;5051227;28;20199;-70
2023/06/23 05:17:56;;;;;;;11.20;8.80;;;19.30;99.90;;;;;;5052856;28;20694;-71
2023/06/23 05:20:25;;;;;;;10.45;8.95;;;19.30;99.90;;;;;;5035272;28;20172;-71
2023/06/23 05:22:55;;;;;;;10.63;8.38;;;19.40;99.90;;;;;;5052558;28;20221;-71
2023/06/23 05:25:23;;;;;;;11.65;9.02;;;19.30;99.90;;;;;;5034061;28;20212;-71
2023/06/23 05:27:57;;;;;;;9.15;8.05;;;19.30;99.90;;;;;;5052651;28;20195;-72
2023/06/23 05:30:24;;;;;;;9.85;8.63;;;19.20;99.90;;;;;;5052302;28;20563;-70
2023/06/23 05:32:52;;;;;;;9.95;8.95;;;19.20;99.90;;;;;;5052617;28;20193;-71
2023/06/23 05:35:18;;;;;;;10.23;8.50;;;19.10;99.90;;;;;;5052510;28;20179;-71
2023/06/23 05:37:46;;;;;;;11.60;8.55;;;19.10;99.90;;;;;;5034315;28;20240;-71
2023/06/23 05:40:13;;;;;;;11.25;9.77;;;19.10;99.90;;;;;;5050721;28;20666;-71
2023/06/23 05:42:40;;;;;;;13.27;11.68;;;19.00;99.90;;;;;;5048536;28;20359;-70
2023/06/23 05:45:07;;;;;;;11.52;10.15;;;19.10;99.90;;;;;;5051812;28;20302;-72
2023/06/23 05:47:43;;;;;;;11.15;10.05;;;19.00;99.90;;;;;;5052201;28;20191;-70
2023/06/23 05:50:19;;;;;;;14.00;11.02;;;18.90;99.90;;;;;;5052413;28;20629;-71
2023/06/23 05:52:56;;;;;;;12.15;10.38;;;19.00;99.90;;;;;;5046359;28;20199;-71
2023/06/23 05:55:24;;;;;;;12.00;9.20;;;19.00;99.90;;;;;;5051725;28;20203;-71
2023/06/23 05:57:56;;;;;;;10.40;8.95;;;19.00;99.90;;;;;;5051980;28;20199;-71
2023/06/23 06:00:25;;;;;;;12.35;10.77;;;19.00;99.90;;;;;;5051712;28;20242;-71
2023/06/23 06:02:53;;;;;;;12.48;10.95;;;19.00;99.90;;;;;;5051521;28;20291;-71
2023/06/23 06:05:21;;;;;;;13.25;10.25;;;19.00;99.90;;;;;;5051888;28;20207;-71
2023/06/23 06:07:48;;;;;;;11.90;10.70;;;19.00;99.90;;;;;;5033765;28;20762;-71
2023/06/23 06:10:15;;;;;;;11.63;10.02;;;19.10;99.90;;;;;;5051399;28;20215;-70
2023/06/23 06:12:44;;;;;;;11.45;9.43;;;19.10;99.90;;;;;;5051583;28;20191;-70
2023/06/23 06:15:12;;;;;;;12.93;11.57;;;19.10;99.90;;;;;;5051188;28;20199;-70
2023/06/23 06:17:40;;;;;;;16.17;11.93;;;19.10;99.90;;;;;;5051539;28;20190;-71
2023/06/23 06:20:07;;;;;;;11.52;10.23;;;19.10;99.90;;;;;;5052128;28;20638;-73
2023/06/23 06:22:37;;;;;;;13.80;11.10;;;19.10;99.90;;;;;;5051465;28;20203;-71
2023/06/23 06:25:05;;;;;;;12.88;11.45;;;19.10;99.90;;;;;;5051316;28;20207;-69
2023/06/23 06:27:33;;;;;;;13.73;11.02;;;19.00;99.90;;;;;;5051538;28;20269;-71
2023/06/23 06:30:00;;;;;;;15.05;13.00;;;19.10;99.90;;;;;;5051245;28;20266;-70
2023/06/23 06:32:29;;;;;;;14.77;12.75;;;19.00;99.90;;;;;;5051549;28;20175;-71
2023/06/23 06:34:57;;;;;;;13.15;11.85;;;19.10;99.90;;;;;;5033213;28;20616;-70
2023/06/23 06:37:24;;;;;;;16.65;13.43;;;19.20;99.90;;;;;;5033029;28;20227;-71
2023/06/23 06:39:51;;;;;;;15.30;11.98;;;19.30;99.90;;;;;;5049776;28;20199;-71
2023/06/23 06:42:17;;;;;;;14.75;11.35;;;19.40;99.90;;;;;;5042733;28;20223;-71
2023/06/23 06:44:43;;;;;;;16.58;13.00;;;19.30;99.90;;;;;;5049491;28;20207;-71
2023/06/23 06:47:11;;;;;;;14.15;12.57;;;19.40;99.90;;;;;;5033624;28;20555;-72
2023/06/23 06:49:38;;;;;;;16.65;13.35;;;19.40;99.90;;;;;;5033051;28;20204;-72
2023/06/23 06:52:05;;;;;;;13.23;11.88;;;19.20;99.90;;;;;;5033002;28;20700;-70
2023/06/23 06:54:30;;;;;;;15.25;13.65;;;19.30;99.90;;;;;;5032839;28;20203;-70
2023/06/23 06:56:57;;;;;;;14.65;12.48;;;19.30;99.90;;;;;;5051159;28;20269;-70
2023/06/23 06:59:23;;;;;;;14.90;11.65;;;19.30;99.90;;;;;;5051703;28;20175;-70
2023/06/23 07:01:49;;;;;;;15.35;12.43;;;19.40;99.90;;;;;;5032908;28;20203;-70
2023/06/23 07:04:15;;;;;;;14.82;12.65;;;19.50;99.90;;;;;;5049788;28;20346;-70
2023/06/23 07:06:41;;;;;;;13.65;12.02;;;19.70;99.90;;;;;;5032857;28;20211;-70
2023/06/23 07:09:07;;;;;;;13.63;12.13;;;19.90;99.90;;;;;;5050503;28;20676;-70
2023/06/23 07:11:33;;;;;;;17.55;15.55;;;20.00;99.90;;;;;;5050374;28;20174;-70
2023/06/23 07:13:59;;;;;;;14.35;12.82;;;20.00;99.90;;;;;;5050810;28;20172;-70
2023/06/23 07:16:30;;;;;;;13.15;11.70;;;20.10;99.90;;;;;;5050468;28;20553;-71
2023/06/23 07:18:56;;;;;;;14.70;12.68;;;20.10;99.90;;;;;;5050268;28;20199;-70
2023/06/23 07:21:22;;;;;;;14.18;11.73;;;20.00;99.90;;;;;;5049997;28;20207;-70
2023/06/23 07:23:47;;;;;;;15.20;11.90;;;20.10;99.90;;;;;;5050103;28;20211;-71
2023/06/23 07:26:13;;;;;;;13.35;11.00;;;20.10;99.90;;;;;;5032446;28;20234;-71
2023/06/23 07:28:39;;;;;;;14.50;12.43;;;20.00;99.90;;;;;;5050389;28;20210;-70
2023/06/23 07:31:05;;;;;;;13.07;11.77;;;19.90;99.90;;;;;;5032116;28;20275;-70
2023/06/23 07:33:30;;;;;;;12.90;11.50;;;19.70;99.90;;;;;;5049959;28;20191;-72
2023/06/23 07:35:56;;;;;;;13.90;12.40;;;19.70;99.90;;;;;;5032192;28;20237;-71
2023/06/23 07:38:21;;;;;;;16.25;13.45;;;19.70;99.90;;;;;;5050597;28;20523;-72
2023/06/23 07:40:47;;;;;;;14.65;11.50;;;19.60;99.90;;;;;;5049932;28;20195;-71
2023/06/23 07:43:13;;;;;;;15.52;12.98;;;19.60;99.90;;;;;;5031700;28;20218;-70
2023/06/23 07:45:39;;;;;;;13.68;12.13;;;19.60;99.90;;;;;;5046876;28;20581;-70
2023/06/23 07:48:05;;;;;;;19.77;13.65;;;19.40;99.90;;;;;;5050238;28;20206;-70
2023/06/23 07:50:30;;;;;;;15.40;12.60;;;19.30;99.90;;;;;;5050163;28;20176;-70
2023/06/23 07:52:56;;;;;;;16.15;13.60;;;19.30;99.90;;;;;;5050546;28;20172;-70
2023/06/23 07:55:22;;;;;;;14.15;12.65;;;19.30;99.90;;;;;;5049769;28;20207;-70
2023/06/23 07:57:48;;;;;;;12.63;11.32;;;19.40;99.90;;;;;;5050226;28;20665;-71
2023/06/23 08:00:16;;;;;;;17.40;13.65;;;19.30;99.90;;;;;;5049789;28;20247;-71
2023/06/23 08:02:42;;;;;;;13.00;11.38;;;19.40;99.90;;;;;;5049683;28;20175;-71
2023/06/23 08:05:08;;;;;;;13.30;11.57;;;19.40;99.90;;;;;;5049781;28;20265;-71
2023/06/23 08:07:34;;;;;;;14.52;11.48;;;19.50;99.90;;;;;;5042065;28;20207;-71
2023/06/23 08:09:59;;;;;;;13.70;11.15;;;19.50;99.90;;;;;;5049924;28;20204;-71
2023/06/23 08:12:25;;;;;;;12.18;10.88;;;19.50;99.90;;;;;;5049675;28;20238;-71
2023/06/23 08:14:50;;;;;;;14.13;12.23;;;19.40;99.90;;;;;;5049753;28;20207;-71
2023/06/23 08:17:16;;;;;;;13.52;11.07;;;19.50;99.90;;;;;;5054504;28;20195;-71
2023/06/23 08:19:43;;;;;;;13.55;11.55;;;19.60;99.90;;;;;;5054373;28;20207;-72
2023/06/23 08:22:09;;;;;;;13.15;11.00;;;19.80;99.90;;;;;;5054014;28;20257;-71
2023/06/23 08:24:35;;;;;;;12.27;10.52;;;19.80;99.90;;;;;;5051607;28;20302;-71
2023/06/23 08:27:00;;;;;;;12.02;10.82;;;19.90;99.90;;;;;;5054413;28;20211;-71
2023/06/23 08:29:26;;;;;;;10.77;9.68;;;19.90;99.90;;;;;;5054909;28;20257;-70
2023/06/23 08:31:52;;;;;;;13.50;10.95;;;19.90;99.90;;;;;;5054124;28;20192;-71
2023/06/23 08:34:18;;;;;;;14.45;11.20;;;19.80;99.90;;;;;;5036478;28;20195;-71
2023/06/23 08:36:44;;;;;;;13.57;11.07;;;19.80;99.90;;;;;;5053906;28;20688;-71
2023/06/23 08:39:10;;;;;;;12.02;10.73;;;19.70;99.90;;;;;;5053921;28;20203;-71
2023/06/23 08:41:40;;;;;;;11.90;10.68;;;19.80;99.90;;;;;;5053587;28;20748;-71
2023/06/23 08:44:08;;;;;;;10.82;9.73;;;19.60;99.90;;;;;;5053952;28;20205;-71
2023/06/23 08:46:37;;;;;;;11.05;9.23;;;19.60;99.90;;;;;;5053511;28;20206;-71
2023/06/23 08:49:08;;;;;;;10.63;9.50;;;19.50;99.90;;;;;;5053570;28;20200;-70
2023/06/23 08:51:34;;;;;;;10.57;9.50;;;19.40;99.90;;;;;;5035225;28;20302;-72
2023/06/23 08:54:01;;;;;;;11.63;10.07;;;19.40;99.90;;;;;;5053306;28;20548;-71
2023/06/23 08:56:26;;;;;;;11.38;10.25;;;19.40;99.90;;;;;;5053672;28;20223;-71
2023/06/23 08:58:52;;;;;;;12.25;10.38;;;19.30;99.90;;;;;;5053552;28;20230;-71
2023/06/23 09:01:18;;;;;;;13.82;12.30;;;19.30;99.90;;;;;;5035061;28;20207;-71
2023/06/23 09:03:43;;;;;;;12.65;11.45;;;19.20;99.90;;;;;;5053209;28;20686;-70
2023/06/23 09:06:10;;;;;;;14.30;12.88;;;19.20;99.90;;;;;;5053107;28;20244;-70
2023/06/23 09:08:36;;;;;;;14.27;12.80;;;19.20;99.90;;;;;;5035161;28;20172;-70
2023/06/23 09:11:02;;;;;;;13.57;12.27;;;19.20;99.90;;;;;;5053951;28;20167;-71
2023/06/23 09:13:34;;;;;;;13.73;12.23;;;19.20;99.90;;;;;;5052831;28;20279;-71
2023/06/23 09:16:00;;;;;;;14.38;12.95;;;19.30;99.90;;;;;;5053320;28;20196;-71
2023/06/23 09:18:27;;;;;;;14.50;13.10;;;19.30;99.90;;;;;;5053289;28;20207;-71
2023/06/23 09:20:52;;;;;;;15.02;13.45;;;19.30;99.90;;;;;;5053521;28;20672;-71
2023/06/23 09:23:22;;;;;;;15.85;13.98;;;19.40;99.90;;;;;;5031024;28;20169;-70
2023/06/23 09:25:56;;;;;;;16.95;15.02;;;19.40;99.90;;;;;;5053066;28;20730;-70
2023/06/23 09:28:23;;;;;;;17.20;15.35;;;19.50;99.90;;;;;;5052357;28;20200;-70
2023/06/23 09:30:50;;;;;;;16.77;15.00;;;19.50;99.90;;;;;;5052907;28;20230;-71
2023/06/23 09:33:18;;;;;;;16.83;15.13;;;19.50;99.90;;;;;;5052268;28;20274;-71
2023/06/23 09:35:51;;;;;;;18.20;16.23;;;19.40;99.90;;;;;;5031771;28;20191;-71
2023/06/23 09:38:27;;;;;;;18.55;16.58;;;19.30;99.90;;;;;;5052912;28;20530;-71
2023/06/23 09:41:09;;;;;;;19.85;17.45;;;19.20;99.90;;;;;;5047423;28;20225;-72
2023/06/23 09:43:46;;;;;;;21.08;18.83;;;19.20;99.90;;;;;;5033753;28;20203;-71
2023/06/23 09:46:16;;;;;;;21.25;19.08;;;19.20;99.90;;;;;;5032234;28;20290;-71
2023/06/23 09:48:44;;;;;;;22.75;20.27;;;19.20;99.90;;;;;;5051663;28;20192;-72
2023/06/23 09:51:10;;;;;;;22.05;19.75;;;19.10;99.90;;;;;;5052376;28;20203;-71
2023/06/23 09:53:37;;;;;;;22.02;19.83;;;19.00;99.90;;;;;;5052062;28;20255;-71
2023/06/23 09:56:04;;;;;;;22.08;19.88;;;19.00;99.90;;;;;;5052945;28;20183;-71
2023/06/23 09:58:37;;;;;;;22.30;20.02;;;19.10;99.90;;;;;;5034545;28;20200;-72
2023/06/23 10:01:08;;;;;;;22.80;20.40;;;19.10;99.90;;;;;;5052353;28;20306;-72
2023/06/23 10:03:51;;;;;;;24.48;21.88;;;19.00;99.90;;;;;;5052041;28;20573;-72
2023/06/23 10:06:31;;;;;;;24.70;22.15;;;19.00;99.90;;;;;;5034341;28;20297;-72
2023/06/23 10:09:00;;;;;;;23.58;21.13;;;19.00;99.90;;;;;;5052381;28;20374;-72
2023/06/23 10:11:30;;;;;;;23.92;21.52;;;19.10;99.90;;;;;;5052525;28;20592;-74
2023/06/23 10:14:04;;;;;;;21.60;19.42;;;19.10;99.90;;;;;;5051952;28;20203;-73
2023/06/23 10:16:31;;;;;;;21.98;19.67;;;19.10;99.90;;;;;;5050586;28;20337;-73
2023/06/23 10:18:57;;;;;;;24.45;21.92;;;19.10;99.90;;;;;;5047280;28;20208;-75
2023/06/23 10:21:23;;;;;;;22.38;20.17;;;19.10;99.90;;;;;;5034153;28;20208;-73
2023/06/23 10:23:51;;;;;;;22.88;20.60;;;19.20;99.90;;;;;;5051810;28;20562;-72
2023/06/23 10:26:18;;;;;;;22.55;20.17;;;19.20;99.90;;;;;;5052768;28;20701;-71
2023/06/23 10:28:46;;;;;;;21.65;19.42;;;19.30;99.90;;;;;;5034340;28;20298;-72
2023/06/23 10:31:12;;;;;;;19.70;17.83;;;19.40;99.90;;;;;;5051307;28;20196;-72
2023/06/23 10:33:41;;;;;;;19.60;17.50;;;19.50;99.90;;;;;;5051342;28;20196;-72
2023/06/23 10:36:10;;;;;;;19.45;17.55;;;19.50;99.90;;;;;;5051684;28;20234;-72
2023/06/23 10:38:42;;;;;;;20.75;17.63;;;19.60;99.90;;;;;;5051318;28;20263;-72
2023/06/23 10:41:10;;;;;;;17.27;15.55;;;19.70;99.90;;;;;;5051706;28;20602;-72
2023/06/23 10:43:39;;;;;;;17.50;15.80;;;19.70;99.90;;;;;;5033073;28;20715;-72
2023/06/23 10:46:05;;;;;;;16.48;14.93;;;19.80;99.90;;;;;;5033589;28;20204;-72
2023/06/23 10:48:31;;;;;;;15.57;14.18;;;19.80;99.90;;;;;;5032939;28;20693;-72
2023/06/23 10:50:58;;;;;;;16.52;14.93;;;19.80;99.90;;;;;;5032687;28;20203;-72
2023/06/23 10:53:30;;;;;;;16.38;14.82;;;19.60;99.90;;;;;;5051411;28;20172;-72
2023/06/23 10:55:58;;;;;;;16.38;14.82;;;19.60;99.90;;;;;;5051219;28;20290;-71
2023/06/23 10:58:24;;;;;;;15.77;14.27;;;19.50;99.90;;;;;;5033090;28;20204;-73
2023/06/23 11:00:59;;;;;;;16.92;15.13;;;19.50;99.90;;;;;;5043621;28;20600;-73
2023/06/23 11:03:33;;;;;;;16.38;14.73;;;19.40;99.90;;;;;;5019071;28;20264;-72
2023/06/23 11:06:04;;;;;;;16.58;14.98;;;19.30;99.90;;;;;;5029011;28;20203;-73
2023/06/23 11:08:34;;;;;;;16.38;14.70;;;19.40;99.90;;;;;;5039038;28;20208;-73
2023/06/23 11:11:06;;;;;;;18.77;16.77;;;19.50;99.90;;;;;;5039839;28;20203;-73
2023/06/23 11:13:36;;;;;;;18.52;16.63;;;19.60;99.90;;;;;;5037371;28;20206;-73
2023/06/23 11:16:03;;;;;;;18.60;16.67;;;19.50;99.90;;;;;;5036776;28;20697;-72
2023/06/23 11:18:29;;;;;;;19.30;17.30;;;19.60;99.90;;;;;;5041290;28;20257;-73
2023/06/23 11:21:02;;;;;;;19.65;17.65;;;19.50;99.90;;;;;;5039976;28;20204;-72
2023/06/23 11:23:28;;;;;;;22.20;19.98;;;19.50;99.90;;;;;;5034781;28;20180;-72
2023/06/23 11:25:54;;;;;;;21.90;19.83;;;19.30;99.90;;;;;;5044287;28;20200;-71
2023/06/23 11:28:36;;;;;;;21.23;18.90;;;19.40;99.90;;;;;;5044008;28;20199;-71
2023/06/23 11:31:24;;;;;;;23.67;21.25;;;19.30;99.90;;;;;;5041363;28;20287;-73
2023/06/23 11:34:03;;;;;;;23.30;20.95;;;19.30;99.90;;;;;;5027128;28;20200;-74
2023/06/23 11:36:30;;;;;;;25.05;22.58;;;19.20;99.90;;;;;;5037648;28;20204;-73
2023/06/23 11:38:57;;;;;;;25.58;22.98;;;19.20;99.90;;;;;;5043301;28;20220;-72
2023/06/23 11:41:32;;;;;;;26.00;23.30;;;19.20;99.90;;;;;;5039885;28;20215;-73
2023/06/23 11:44:02;;;;;;;27.10;24.35;;;19.30;99.90;;;;;;5036595;28;20207;-73
2023/06/23 11:46:31;;;;;;;24.05;21.63;;;19.40;99.90;;;;;;5035806;28;20628;-73
2023/06/23 11:48:56;;;;;;;25.20;22.67;;;19.50;99.90;;;;;;5035845;28;20787;-72
2023/06/23 11:51:22;;;;;;;22.90;20.50;;;19.60;99.90;;;;;;5036515;28;20208;-71
2023/06/23 11:53:52;;;;;;;23.30;20.88;;;19.60;99.90;;;;;;5038870;28;20172;-73
2023/06/23 11:56:19;;;;;;;21.48;19.42;;;19.60;99.90;;;;;;5031954;28;20203;-73
2023/06/23 11:58:50;;;;;;;20.00;18.00;;;19.60;99.90;;;;;;5045532;28;20204;-73
2023/06/23 12:01:17;;;;;;;19.67;16.13;;;19.60;99.90;;;;;;5034229;28;20253;-72
2023/06/23 12:04:02;;;;;;;15.07;13.43;;;19.60;99.90;;;;;;5040458;28;20570;-73
2023/06/23 12:06:27;;;;;;;14.02;12.52;;;19.60;99.90;;;;;;5040802;28;20207;-73
2023/06/23 12:08:54;;;;;;;12.75;11.23;;;19.50;99.90;;;;;;5045350;28;20212;-72
2023/06/23 12:11:20;;;;;;;11.30;10.13;;;19.50;99.90;;;;;;5031172;28;20181;-73
2023/06/23 12:13:48;;;;;;;10.07;8.57;;;19.50;99.90;;;;;;5027938;28;20242;-73
2023/06/23 12:16:14;;;;;;;9.45;7.90;;;19.40;99.90;;;;;;5028056;28;20291;-73
2023/06/23 12:18:44;;;;;;;11.38;8.68;;;19.30;99.90;;;;;;5025269;28;20254;-73
2023/06/23 12:21:09;;;;;;;11.05;8.95;;;19.20;99.90;;;;;;5029271;28;20204;-72
2023/06/23 12:23:36;;;;;;;9.43;8.30;;;19.10;99.90;;;;;;5030188;28;20227;-73
2023/06/23 12:26:03;;;;;;;9.65;7.20;;;19.00;99.90;;;;;;5026862;28;20198;-73
2023/06/23 12:28:29;;;;;;;10.68;6.95;;;19.10;99.90;;;;;;5022004;28;20212;-73
2023/06/23 12:30:55;;;;;;;11.93;8.02;;;19.10;99.90;;;;;;5026009;28;20208;-72
2023/06/23 12:33:25;;;;;;;10.98;8.00;;;19.10;99.90;;;;;;5019984;28;20236;-73
2023/06/23 12:36:00;;;;;;;9.77;7.03;;;19.20;99.90;;;;;;5040131;28;20208;-72
2023/06/23 12:38:26;;;;;;;12.13;6.78;;;19.10;99.90;;;;;;5028192;28;20251;-72
2023/06/23 12:40:53;;;;;;;8.25;6.38;;;19.00;99.90;;;;;;5025631;28;20690;-72
2023/06/23 12:43:20;;;;;;;9.18;7.18;;;19.00;99.90;;;;;;5026101;28;20208;-73